createdAt,value
2016-03-13T00:00:20.195Z,0
2016-03-13T00:01:20.155Z,0
2016-03-13T00:02:20.127Z,0
2016-03-13T00:03:20.160Z,0
2016-03-13T00:04:20.147Z,0
2016-03-13T00:05:20.149Z,0
2016-03-13T00:06:20.152Z,0
2016-03-13T00:07:20.171Z,0
2016-03-13T00:08:20.173Z,0
2016-03-13T00:09:20.177Z,0
2016-03-13T00:10:20.163Z,0
2016-03-13T00:11:20.166Z,0
2016-03-13T00:12:20.185Z,0
2016-03-13T00:13:20.172Z,0
2016-03-13T00:14:20.190Z,0
2016-03-13T00:15:20.036Z,0
2016-03-13T00:16:20.195Z,0
2016-03-13T00:17:20.198Z,0
2016-03-13T00:18:20.201Z,0
2016-03-13T00:19:20.220Z,0
2016-03-13T00:20:20.050Z,0
2016-03-13T00:21:20.225Z,0
2016-03-13T00:22:20.227Z,0
2016-03-13T00:23:20.230Z,0
2016-03-13T00:24:20.217Z,0
2016-03-13T00:25:20.235Z,0
2016-03-13T00:26:20.269Z,0
2016-03-13T00:27:20.241Z,0
2016-03-13T00:28:20.243Z,0
2016-03-13T00:29:20.230Z,0
2016-03-13T00:30:20.249Z,0
2016-03-13T00:31:20.252Z,0
2016-03-13T00:32:20.255Z,0
2016-03-13T00:33:20.257Z,0
2016-03-13T00:34:20.291Z,0
2016-03-13T00:35:20.277Z,0
2016-03-13T00:36:20.265Z,0
2016-03-13T00:37:20.282Z,0
2016-03-13T00:38:20.286Z,0
2016-03-13T00:39:20.293Z,0
2016-03-13T00:40:20.296Z,0
2016-03-13T00:41:20.315Z,0
2016-03-13T00:42:20.285Z,0
2016-03-13T00:43:20.304Z,0
2016-03-13T00:44:20.291Z,0
2016-03-13T00:45:20.309Z,0
2016-03-13T00:46:20.312Z,0
2016-03-13T00:47:20.314Z,0
2016-03-13T00:48:20.318Z,0
2016-03-13T00:49:20.320Z,0
2016-03-13T00:50:20.339Z,0
2016-03-13T00:51:20.326Z,0
2016-03-13T00:52:20.328Z,0
2016-03-13T00:53:20.190Z,0
2016-03-13T00:54:20.333Z,0
2016-03-13T00:55:20.336Z,0
2016-03-13T00:56:20.355Z,0
2016-03-13T00:57:20.372Z,0
2016-03-13T00:58:20.360Z,0
2016-03-13T00:59:20.363Z,0
2016-03-13T01:00:20.366Z,0
2016-03-13T01:01:20.369Z,0
2016-03-13T01:02:20.371Z,0
2016-03-13T01:03:20.374Z,0
2016-03-13T01:04:20.391Z,0
2016-03-13T01:05:20.222Z,0
2016-03-13T01:06:20.240Z,0
2016-03-13T01:07:20.400Z,0
2016-03-13T01:08:20.402Z,0
2016-03-13T01:09:20.390Z,0
2016-03-13T01:10:20.408Z,0
2016-03-13T01:11:20.396Z,0
2016-03-13T01:12:20.413Z,0
2016-03-13T01:13:20.431Z,0
2016-03-13T01:14:20.418Z,0
2016-03-13T01:15:20.437Z,0
2016-03-13T01:16:20.439Z,0
2016-03-13T01:17:20.442Z,0
2016-03-13T01:18:20.446Z,0
2016-03-13T01:19:20.448Z,0
2016-03-13T01:20:20.467Z,0
2016-03-13T01:21:20.453Z,0
2016-03-13T01:22:20.456Z,0
2016-03-13T01:23:20.458Z,0
2016-03-13T01:24:20.461Z,0
2016-03-13T01:25:20.463Z,0
2016-03-13T01:26:20.467Z,0
2016-03-13T01:27:20.469Z,0
2016-03-13T01:28:20.488Z,0
2016-03-13T01:29:20.491Z,0
2016-03-13T01:30:20.493Z,0
2016-03-13T01:31:20.511Z,0
2016-03-13T01:32:20.499Z,0
2016-03-13T01:33:20.516Z,0
2016-03-13T01:34:20.519Z,0
2016-03-13T01:35:20.506Z,0
2016-03-13T01:36:20.524Z,0
2016-03-13T01:37:20.528Z,0
2016-03-13T01:38:20.530Z,0
2016-03-13T01:39:20.533Z,0
2016-03-13T01:40:20.535Z,0
2016-03-13T01:41:20.538Z,0
2016-03-13T01:42:20.525Z,0
2016-03-13T01:43:20.559Z,0
2016-03-13T01:44:20.562Z,0
2016-03-13T01:45:20.565Z,0
2016-03-13T01:46:20.568Z,0
2016-03-13T01:47:20.570Z,0
2016-03-13T01:48:20.573Z,0
2016-03-13T01:49:20.576Z,0
2016-03-13T01:50:20.578Z,0
2016-03-13T01:51:20.581Z,0
2016-03-13T01:52:20.598Z,0
2016-03-13T01:53:20.601Z,0
2016-03-13T01:54:20.589Z,0
2016-03-13T01:55:20.575Z,0
2016-03-13T01:56:20.595Z,0
2016-03-13T01:57:20.597Z,0
2016-03-13T01:58:20.600Z,0
2016-03-13T01:59:20.602Z,0
2016-03-13T02:00:20.620Z,0
2016-03-13T02:01:20.608Z,0
2016-03-13T02:02:20.610Z,0
2016-03-13T02:03:20.613Z,0
2016-03-13T02:04:20.616Z,0
2016-03-13T02:05:20.650Z,0
2016-03-13T02:06:20.636Z,0
2016-03-13T02:07:20.671Z,0
2016-03-13T02:08:20.486Z,0
2016-03-13T02:09:20.676Z,0
2016-03-13T02:10:20.647Z,0
2016-03-13T02:11:20.666Z,0
2016-03-13T02:12:20.652Z,0
2016-03-13T02:13:20.687Z,0
2016-03-13T02:14:20.657Z,0
2016-03-13T02:15:20.693Z,0
2016-03-13T02:16:20.679Z,0
2016-03-13T02:17:20.682Z,0
2016-03-13T02:18:20.685Z,0
2016-03-13T02:19:20.687Z,0
2016-03-13T02:20:20.737Z,0
2016-03-13T02:21:20.693Z,0
2016-03-13T02:22:20.726Z,0
2016-03-13T02:23:20.542Z,0
2016-03-13T02:24:20.716Z,0
2016-03-13T02:25:20.703Z,0
2016-03-13T02:26:20.722Z,0
2016-03-13T02:27:20.725Z,0
2016-03-13T02:28:20.743Z,0
2016-03-13T02:29:20.730Z,0
2016-03-13T02:30:20.748Z,0
2016-03-13T02:31:20.735Z,0
2016-03-13T02:32:20.738Z,0
2016-03-13T02:33:20.740Z,0
2016-03-13T02:34:20.759Z,0
2016-03-13T02:35:20.747Z,0
2016-03-13T02:36:20.763Z,0
2016-03-13T02:37:20.767Z,0
2016-03-13T02:38:20.786Z,0
2016-03-13T02:39:20.772Z,0
2016-03-13T02:40:20.791Z,0
2016-03-13T02:41:20.762Z,0
2016-03-13T02:42:20.812Z,0
2016-03-13T02:43:20.815Z,0
2016-03-13T02:44:20.771Z,0
2016-03-13T02:45:20.804Z,0
2016-03-13T02:46:20.807Z,0
2016-03-13T02:47:20.653Z,0
2016-03-13T02:48:20.828Z,0
2016-03-13T02:49:20.815Z,0
2016-03-13T02:50:20.833Z,0
2016-03-13T02:51:20.820Z,0
2016-03-13T02:52:20.839Z,0
2016-03-13T02:53:20.825Z,0
2016-03-13T02:54:20.844Z,0
2016-03-13T02:55:20.847Z,0
2016-03-13T02:56:20.865Z,0
2016-03-13T02:57:20.915Z,0
2016-03-13T02:58:20.870Z,0
2016-03-13T02:59:20.858Z,0
2016-03-13T03:00:20.876Z,0
2016-03-13T03:01:20.864Z,0
2016-03-13T03:02:20.881Z,0
2016-03-13T03:03:20.900Z,0
2016-03-13T03:04:20.887Z,0
2016-03-13T03:05:20.905Z,0
2016-03-13T03:06:20.877Z,0
2016-03-13T03:07:20.894Z,0
2016-03-13T03:08:20.882Z,0
2016-03-13T03:09:20.900Z,0
2016-03-13T03:10:20.902Z,0
2016-03-13T03:11:20.905Z,0
2016-03-13T03:12:20.955Z,0
2016-03-13T03:13:20.926Z,0
2016-03-13T03:14:20.913Z,0
2016-03-13T03:15:20.932Z,0
2016-03-13T03:16:20.918Z,0
2016-03-13T03:17:20.937Z,0
2016-03-13T03:18:20.923Z,0
2016-03-13T03:19:20.942Z,0
2016-03-13T03:20:20.929Z,0
2016-03-13T03:21:20.948Z,0
2016-03-13T03:22:20.950Z,0
2016-03-13T03:23:20.968Z,0
2016-03-13T03:24:20.956Z,0
2016-03-13T03:25:20.973Z,0
2016-03-13T03:26:20.961Z,0
2016-03-13T03:27:20.886Z,0
2016-03-13T03:28:20.966Z,0
2016-03-13T03:29:20.985Z,0
2016-03-13T03:30:20.972Z,0
2016-03-13T03:31:20.975Z,0
2016-03-13T03:32:20.978Z,0
2016-03-13T03:33:20.980Z,0
2016-03-13T03:34:20.998Z,0
2016-03-13T03:35:21.001Z,0
2016-03-13T03:36:21.003Z,0
2016-03-13T03:37:21.006Z,0
2016-03-13T03:38:21.025Z,0
2016-03-13T03:39:21.012Z,0
2016-03-13T03:40:21.030Z,0
2016-03-13T03:41:21.049Z,0
2016-03-13T03:42:21.035Z,0
2016-03-13T03:43:21.038Z,0
2016-03-13T03:44:21.041Z,0
2016-03-13T03:45:21.043Z,0
2016-03-13T03:46:21.046Z,0
2016-03-13T03:47:21.049Z,0
2016-03-13T03:48:21.082Z,0
2016-03-13T03:49:21.070Z,0
2016-03-13T03:50:21.073Z,0
2016-03-13T03:51:21.090Z,0
2016-03-13T03:52:21.078Z,0
2016-03-13T03:53:21.080Z,0
2016-03-13T03:54:21.098Z,0
2016-03-13T03:55:21.086Z,0
2016-03-13T03:56:20.948Z,0
2016-03-13T03:57:21.091Z,0
2016-03-13T03:58:20.953Z,0
2016-03-13T03:59:21.097Z,0
2016-03-13T04:00:21.099Z,0
2016-03-13T04:01:21.117Z,0
2016-03-13T04:02:21.120Z,0
2016-03-13T04:03:21.123Z,0
2016-03-13T04:04:21.126Z,0
2016-03-13T04:05:21.113Z,0
2016-03-13T04:06:21.131Z,0
2016-03-13T04:07:21.119Z,0
2016-03-13T04:08:21.136Z,0
2016-03-13T04:09:21.155Z,0
2016-03-13T04:10:21.142Z,0
2016-03-13T04:11:21.144Z,0
2016-03-13T04:12:21.147Z,0
2016-03-13T04:13:21.150Z,0
2016-03-13T04:14:21.152Z,0
2016-03-13T04:15:21.155Z,0
2016-03-13T04:16:21.002Z,0
2016-03-13T04:17:21.160Z,0
2016-03-13T04:18:21.163Z,0
2016-03-13T04:19:21.182Z,0
2016-03-13T04:20:21.184Z,0
2016-03-13T04:21:21.187Z,0
2016-03-13T04:22:21.174Z,0
2016-03-13T04:23:21.192Z,0
2016-03-13T04:24:21.195Z,0
2016-03-13T04:25:21.214Z,0
2016-03-13T04:26:21.200Z,0
2016-03-13T04:27:21.204Z,0
2016-03-13T04:28:21.206Z,0
2016-03-13T04:29:21.209Z,0
2016-03-13T04:30:21.212Z,0
2016-03-13T04:31:21.230Z,0
2016-03-13T04:32:21.233Z,0
2016-03-13T04:33:21.267Z,0
2016-03-13T04:34:21.239Z,0
2016-03-13T04:35:21.241Z,0
2016-03-13T04:36:21.244Z,0
2016-03-13T04:37:21.247Z,0
2016-03-13T04:38:21.264Z,0
2016-03-13T04:39:21.267Z,0
2016-03-13T04:40:21.269Z,0
2016-03-13T04:41:21.288Z,0
2016-03-13T04:42:21.275Z,0
2016-03-13T04:43:21.277Z,0
2016-03-13T04:44:21.280Z,0
2016-03-13T04:45:21.299Z,0
2016-03-13T04:46:21.285Z,0
2016-03-13T04:47:21.304Z,0
2016-03-13T04:48:21.307Z,0
2016-03-13T04:49:21.309Z,0
2016-03-13T04:50:21.312Z,0
2016-03-13T04:51:21.314Z,0
2016-03-13T04:52:21.332Z,0
2016-03-13T04:53:21.320Z,0
2016-03-13T04:54:21.323Z,0
2016-03-13T04:55:21.325Z,0
2016-03-13T04:56:21.343Z,0
2016-03-13T04:57:21.346Z,0
2016-03-13T04:58:21.333Z,0
2016-03-13T04:59:21.336Z,0
2016-03-13T05:00:21.776Z,0
2016-03-13T05:01:21.373Z,0
2016-03-13T05:02:21.360Z,0
2016-03-13T05:03:21.362Z,0
2016-03-13T05:04:21.381Z,0
2016-03-13T05:05:21.368Z,0
2016-03-13T05:06:21.386Z,0
2016-03-13T05:07:21.358Z,0
2016-03-13T05:08:21.376Z,0
2016-03-13T05:09:21.378Z,0
2016-03-13T05:10:21.397Z,0
2016-03-13T05:11:21.384Z,0
2016-03-13T05:12:21.402Z,0
2016-03-13T05:13:21.389Z,0
2016-03-13T05:14:21.392Z,0
2016-03-13T05:15:21.394Z,0
2016-03-13T05:16:21.413Z,0
2016-03-13T05:17:21.416Z,0
2016-03-13T05:18:21.418Z,0
2016-03-13T05:19:21.421Z,0
2016-03-13T05:20:21.424Z,0
2016-03-13T05:21:21.426Z,0
2016-03-13T05:22:21.429Z,0
2016-03-13T05:23:21.432Z,0
2016-03-13T05:24:21.450Z,0
2016-03-13T05:25:21.437Z,0
2016-03-13T05:26:21.439Z,0
2016-03-13T05:27:21.458Z,0
2016-03-13T05:28:21.445Z,0
2016-03-13T05:29:21.447Z,0
2016-03-13T05:30:21.450Z,0
2016-03-13T05:31:21.453Z,0
2016-03-13T05:32:21.472Z,0
2016-03-13T05:33:21.474Z,0
2016-03-13T05:34:21.477Z,0
2016-03-13T05:35:21.480Z,0
2016-03-13T05:36:21.483Z,0
2016-03-13T05:37:21.501Z,0
2016-03-13T05:38:21.488Z,0
2016-03-13T05:39:21.506Z,0
2016-03-13T05:40:21.509Z,0
2016-03-13T05:41:21.511Z,0
2016-03-13T05:42:21.514Z,0
2016-03-13T05:43:21.517Z,0
2016-03-13T05:44:21.519Z,0
2016-03-13T05:45:21.507Z,0
2016-03-13T05:46:21.589Z,0
2016-03-13T05:47:21.372Z,0
2016-03-13T05:48:21.516Z,0
2016-03-13T05:49:21.427Z,0
2016-03-13T05:50:21.555Z,0
2016-03-13T05:51:21.542Z,0
2016-03-13T05:52:21.576Z,0
2016-03-13T05:53:21.547Z,0
2016-03-13T05:54:21.550Z,0
2016-03-13T05:55:21.569Z,0
2016-03-13T05:56:21.587Z,5
2016-03-13T05:57:21.574Z,5
2016-03-13T05:58:21.644Z,5
2016-03-13T05:59:21.584Z,5
2016-03-13T06:00:21.602Z,5
2016-03-13T06:01:21.605Z,5
2016-03-13T06:02:21.607Z,5
2016-03-13T06:03:21.610Z,5
2016-03-13T06:04:21.613Z,5
2016-03-13T06:05:21.615Z,10
2016-03-13T06:06:21.615Z,10
2016-03-13T06:07:21.618Z,10
2016-03-13T06:08:21.621Z,10
2016-03-13T06:09:21.624Z,10
2016-03-13T06:10:21.626Z,10
2016-03-13T06:11:21.629Z,10
2016-03-13T06:12:21.476Z,10
2016-03-13T06:13:21.635Z,15
2016-03-13T06:14:21.637Z,15
2016-03-13T06:15:21.640Z,15
2016-03-13T06:16:21.643Z,15
2016-03-13T06:17:21.645Z,15
2016-03-13T06:18:21.664Z,15
2016-03-13T06:19:21.667Z,20
2016-03-13T06:20:21.669Z,20
2016-03-13T06:21:21.672Z,20
2016-03-13T06:22:21.674Z,20
2016-03-13T06:23:21.677Z,20
2016-03-13T06:24:21.680Z,20
2016-03-13T06:25:21.698Z,25
2016-03-13T06:26:21.701Z,25
2016-03-13T06:27:21.719Z,25
2016-03-13T06:28:21.690Z,25
2016-03-13T06:29:21.756Z,35
2016-03-13T06:30:21.696Z,45
2016-03-13T06:31:21.745Z,55
2016-03-13T06:32:21.717Z,55
2016-03-13T06:33:21.720Z,50
2016-03-13T06:34:21.706Z,40
2016-03-13T06:35:21.740Z,35
2016-03-13T06:36:21.728Z,30
2016-03-13T06:37:21.745Z,30
2016-03-13T06:38:21.811Z,35
2016-03-13T06:39:21.736Z,35
2016-03-13T06:40:21.769Z,35
2016-03-13T06:41:21.742Z,35
2016-03-13T06:42:21.775Z,35
2016-03-13T06:43:21.762Z,40
2016-03-13T06:44:21.765Z,40
2016-03-13T06:45:21.752Z,40
2016-03-13T06:46:21.802Z,40
2016-03-13T06:47:21.617Z,40
2016-03-13T06:48:21.791Z,40
2016-03-13T06:49:21.778Z,45
2016-03-13T06:50:21.812Z,45
2016-03-13T06:51:21.799Z,45
2016-03-13T06:52:21.818Z,45
2016-03-13T06:53:21.805Z,45
2016-03-13T06:54:21.791Z,45
2016-03-13T06:55:21.841Z,50
2016-03-13T06:56:21.813Z,50
2016-03-13T06:57:21.831Z,50
2016-03-13T06:58:21.834Z,50
2016-03-13T06:59:21.837Z,50
2016-03-13T07:00:22.183Z,50
2016-03-13T07:01:21.843Z,50
2016-03-13T07:02:21.876Z,50
2016-03-13T07:03:21.848Z,50
2016-03-13T07:04:21.882Z,55
2016-03-13T07:05:21.853Z,55
2016-03-13T07:06:21.871Z,55
2016-03-13T07:07:21.859Z,55
2016-03-13T07:08:21.876Z,55
2016-03-13T07:09:21.864Z,55
2016-03-13T07:10:21.881Z,55
2016-03-13T07:11:21.884Z,55
2016-03-13T07:12:21.903Z,60
2016-03-13T07:13:21.921Z,60
2016-03-13T07:14:21.892Z,60
2016-03-13T07:15:21.926Z,60
2016-03-13T07:16:21.898Z,60
2016-03-13T07:17:21.947Z,60
2016-03-13T07:18:21.903Z,60
2016-03-13T07:19:21.921Z,60
2016-03-13T07:20:21.924Z,65
2016-03-13T07:21:21.942Z,65
2016-03-13T07:22:21.929Z,65
2016-03-13T07:23:22.026Z,65
2016-03-13T07:24:21.950Z,65
2016-03-13T07:25:21.937Z,70
2016-03-13T07:26:21.972Z,70
2016-03-13T07:27:21.958Z,70
2016-03-13T07:28:21.961Z,70
2016-03-13T07:29:21.964Z,70
2016-03-13T07:30:21.982Z,75
2016-03-13T07:31:21.985Z,75
2016-03-13T07:32:22.004Z,75
2016-03-13T07:33:21.819Z,75
2016-03-13T07:34:22.009Z,75
2016-03-13T07:35:21.980Z,75
2016-03-13T07:36:21.998Z,80
2016-03-13T07:37:22.001Z,80
2016-03-13T07:38:22.004Z,80
2016-03-13T07:39:22.037Z,80
2016-03-13T07:40:22.025Z,75
2016-03-13T07:41:22.075Z,80
2016-03-13T07:42:22.030Z,80
2016-03-13T07:43:22.095Z,80
2016-03-13T07:44:22.035Z,80
2016-03-13T07:45:22.053Z,80
2016-03-13T07:46:22.041Z,80
2016-03-13T07:47:22.058Z,80
2016-03-13T07:48:22.046Z,80
2016-03-13T07:49:22.096Z,80
2016-03-13T07:50:22.052Z,80
2016-03-13T07:51:22.070Z,80
2016-03-13T07:52:22.089Z,85
2016-03-13T07:53:22.075Z,85
2016-03-13T07:54:22.110Z,85
2016-03-13T07:55:22.081Z,85
2016-03-13T07:56:22.130Z,85
2016-03-13T07:57:22.086Z,85
2016-03-13T07:58:22.120Z,90
2016-03-13T07:59:22.107Z,90
2016-03-13T08:00:22.110Z,95
2016-03-13T08:01:22.128Z,95
2016-03-13T08:02:22.131Z,90
2016-03-13T08:03:22.118Z,90
2016-03-13T08:04:22.137Z,85
2016-03-13T08:05:22.124Z,75
2016-03-13T08:06:22.173Z,90
2016-03-13T08:07:22.145Z,100
2016-03-13T08:08:22.178Z,105
2016-03-13T08:09:22.150Z,100
2016-03-13T08:10:22.184Z,100
2016-03-13T08:11:22.155Z,110
2016-03-13T08:12:22.173Z,105
2016-03-13T08:13:22.176Z,100
2016-03-13T08:14:22.210Z,95
2016-03-13T08:15:22.181Z,80
2016-03-13T08:16:22.184Z,100
2016-03-13T08:17:22.187Z,90
2016-03-13T08:18:22.205Z,80
2016-03-13T08:19:22.192Z,215
2016-03-13T08:20:22.211Z,120
2016-03-13T08:21:22.197Z,90
2016-03-13T08:22:22.216Z,100
2016-03-13T08:23:22.218Z,410
2016-03-13T08:24:22.221Z,570
2016-03-13T08:25:22.255Z,200
2016-03-13T08:26:22.241Z,630
2016-03-13T08:27:22.277Z,670
2016-03-13T08:28:22.247Z,535
2016-03-13T08:29:22.266Z,380
2016-03-13T08:30:22.269Z,290
2016-03-13T08:31:22.287Z,270
2016-03-13T08:32:22.274Z,265
2016-03-13T08:33:22.292Z,205
2016-03-13T08:34:22.295Z,280
2016-03-13T08:35:22.312Z,280
2016-03-13T08:36:22.302Z,150
2016-03-13T08:37:22.290Z,185
2016-03-13T08:38:22.312Z,250
2016-03-13T08:39:22.284Z,130
2016-03-13T08:40:22.304Z,90
2016-03-13T08:41:22.287Z,70
2016-03-13T08:42:22.300Z,60
2016-03-13T08:43:22.282Z,60
2016-03-13T08:44:22.295Z,55
2016-03-13T08:45:22.282Z,45
2016-03-13T08:46:22.315Z,60
2016-03-13T08:47:22.300Z,45
2016-03-13T08:48:22.316Z,40
2016-03-13T08:49:22.301Z,45
2016-03-13T08:50:22.333Z,40
2016-03-13T08:51:22.148Z,40
2016-03-13T08:52:22.352Z,45
2016-03-13T08:53:22.339Z,45
2016-03-13T08:54:22.325Z,60
2016-03-13T08:55:22.342Z,65
2016-03-13T08:56:22.360Z,65
2016-03-13T08:57:22.362Z,55
2016-03-13T08:58:22.349Z,55
2016-03-13T08:59:22.352Z,75
2016-03-13T09:00:22.464Z,60
2016-03-13T09:01:22.356Z,85
2016-03-13T09:02:22.359Z,60
2016-03-13T09:03:22.378Z,70
2016-03-13T09:04:22.381Z,65
2016-03-13T09:05:22.400Z,90
2016-03-13T09:06:22.073Z,70
2016-03-13T09:07:22.411Z,125
2016-03-13T09:08:22.413Z,100
2016-03-13T09:09:22.416Z,805
2016-03-13T09:10:22.263Z,660
2016-03-13T09:11:22.421Z,405
2016-03-13T09:12:22.424Z,440
2016-03-13T09:13:22.443Z,720
2016-03-13T09:14:22.289Z,205
2016-03-13T09:15:22.464Z,765
2016-03-13T09:16:22.467Z,295
2016-03-13T09:17:22.470Z,425
2016-03-13T09:18:22.331Z,815
2016-03-13T09:19:22.475Z,825
2016-03-13T09:20:22.352Z,595
2016-03-13T09:21:22.528Z,315
2016-03-13T09:22:22.498Z,190
2016-03-13T09:23:22.548Z,160
2016-03-13T09:24:22.519Z,160
2016-03-13T09:25:22.553Z,155
2016-03-13T09:26:22.555Z,165
2016-03-13T09:27:22.574Z,175
2016-03-13T09:28:22.561Z,140
2016-03-13T09:29:22.564Z,135
2016-03-13T09:30:22.614Z,125
2016-03-13T09:31:22.585Z,135
2016-03-13T09:32:22.619Z,115
2016-03-13T09:33:22.591Z,140
2016-03-13T09:34:22.624Z,120
2016-03-13T09:35:22.596Z,140
2016-03-13T09:36:22.630Z,130
2016-03-13T09:37:22.616Z,135
2016-03-13T09:38:22.651Z,125
2016-03-13T09:39:22.638Z,130
2016-03-13T09:40:22.657Z,125
2016-03-13T09:41:22.643Z,115
2016-03-13T09:42:22.677Z,115
2016-03-13T09:43:22.649Z,115
2016-03-13T09:44:22.682Z,110
2016-03-13T09:45:22.685Z,105
2016-03-13T09:46:22.673Z,105
2016-03-13T09:47:22.691Z,105
2016-03-13T09:48:22.678Z,100
2016-03-13T09:49:22.712Z,105
2016-03-13T09:50:22.698Z,100
2016-03-13T09:51:22.733Z,100
2016-03-13T09:52:22.703Z,100
2016-03-13T09:53:22.723Z,100
2016-03-13T09:54:22.741Z,105
2016-03-13T09:55:22.728Z,105
2016-03-13T09:56:22.731Z,105
2016-03-13T09:57:22.749Z,100
2016-03-13T09:58:22.736Z,105
2016-03-13T09:59:22.739Z,100
2016-03-13T10:00:22.772Z,100
2016-03-13T10:01:22.760Z,100
2016-03-13T10:02:22.777Z,100
2016-03-13T10:03:22.765Z,100
2016-03-13T10:04:22.799Z,100
2016-03-13T10:05:22.771Z,100
2016-03-13T10:06:22.805Z,100
2016-03-13T10:07:22.791Z,95
2016-03-13T10:08:22.810Z,95
2016-03-13T10:09:22.796Z,100
2016-03-13T10:10:22.815Z,95
2016-03-13T10:11:22.818Z,95
2016-03-13T10:12:22.821Z,95
2016-03-13T10:13:22.854Z,95
2016-03-13T10:14:22.826Z,95
2016-03-13T10:15:22.876Z,95
2016-03-13T10:16:22.831Z,95
2016-03-13T10:17:22.849Z,90
2016-03-13T10:18:22.836Z,90
2016-03-13T10:19:22.886Z,85
2016-03-13T10:20:22.857Z,85
2016-03-13T10:21:22.859Z,90
2016-03-13T10:22:22.878Z,90
2016-03-13T10:23:22.881Z,90
2016-03-13T10:24:22.868Z,90
2016-03-13T10:25:22.887Z,90
2016-03-13T10:26:22.889Z,85
2016-03-13T10:27:22.908Z,85
2016-03-13T10:28:22.894Z,85
2016-03-13T10:29:22.897Z,85
2016-03-13T10:30:22.947Z,85
2016-03-13T10:31:22.902Z,85
2016-03-13T10:32:22.936Z,85
2016-03-13T10:33:22.924Z,85
2016-03-13T10:34:22.942Z,85
2016-03-13T10:35:22.929Z,85
2016-03-13T10:36:22.947Z,85
2016-03-13T10:37:22.949Z,85
2016-03-13T10:38:22.952Z,85
2016-03-13T10:39:22.987Z,85
2016-03-13T10:40:22.958Z,85
2016-03-13T10:41:22.993Z,85
2016-03-13T10:42:22.979Z,80
2016-03-13T10:43:22.966Z,80
2016-03-13T10:44:22.985Z,80
2016-03-13T10:45:23.003Z,80
2016-03-13T10:46:22.990Z,80
2016-03-13T10:47:23.024Z,80
2016-03-13T10:48:22.995Z,80
2016-03-13T10:49:22.998Z,80
2016-03-13T10:50:23.016Z,80
2016-03-13T10:51:23.003Z,80
2016-03-13T10:52:23.022Z,75
2016-03-13T10:53:23.025Z,75
2016-03-13T10:54:23.028Z,75
2016-03-13T10:55:23.045Z,75
2016-03-13T10:56:23.064Z,75
2016-03-13T10:57:23.036Z,75
2016-03-13T10:58:23.070Z,75
2016-03-13T10:59:23.056Z,75
2016-03-13T11:00:23.089Z,75
2016-03-13T11:01:23.061Z,75
2016-03-13T11:02:23.080Z,75
2016-03-13T11:03:23.067Z,70
2016-03-13T11:04:23.100Z,70
2016-03-13T11:05:23.103Z,75
2016-03-13T11:06:23.106Z,70
2016-03-13T11:07:23.093Z,70
2016-03-13T11:08:23.127Z,70
2016-03-13T11:09:23.099Z,70
2016-03-13T11:10:23.116Z,70
2016-03-13T11:11:23.119Z,70
2016-03-13T11:12:23.154Z,65
2016-03-13T11:13:23.124Z,70
2016-03-13T11:14:23.143Z,65
2016-03-13T11:15:23.129Z,65
2016-03-13T11:16:23.132Z,65
2016-03-13T11:17:23.135Z,65
2016-03-13T11:18:23.138Z,65
2016-03-13T11:19:23.157Z,65
2016-03-13T11:20:23.160Z,65
2016-03-13T11:21:23.178Z,65
2016-03-13T11:22:23.165Z,65
2016-03-13T11:23:23.183Z,65
2016-03-13T11:24:23.170Z,65
2016-03-13T11:25:23.204Z,65
2016-03-13T11:26:23.206Z,65
2016-03-13T11:27:23.209Z,60
2016-03-13T11:28:23.197Z,60
2016-03-13T11:29:23.199Z,60
2016-03-13T11:30:23.233Z,60
2016-03-13T11:31:23.220Z,60
2016-03-13T11:32:23.239Z,60
2016-03-13T11:33:23.226Z,60
2016-03-13T11:34:23.275Z,60
2016-03-13T11:35:23.216Z,60
2016-03-13T11:36:23.250Z,65
2016-03-13T11:37:23.237Z,65
2016-03-13T11:38:23.083Z,65
2016-03-13T11:39:23.086Z,60
2016-03-13T11:40:23.261Z,60
2016-03-13T11:41:23.263Z,55
2016-03-13T11:42:23.282Z,50
2016-03-13T11:43:23.269Z,60
2016-03-13T11:44:23.271Z,65
2016-03-13T11:45:23.290Z,65
2016-03-13T11:46:23.276Z,65
2016-03-13T11:47:23.295Z,65
2016-03-13T11:48:23.298Z,65
2016-03-13T11:49:23.300Z,60
2016-03-13T11:50:23.303Z,60
2016-03-13T11:51:23.290Z,60
2016-03-13T11:52:23.340Z,60
2016-03-13T11:53:23.309Z,60
2016-03-13T11:54:23.357Z,60
2016-03-13T11:55:23.314Z,60
2016-03-13T11:56:23.348Z,60
2016-03-13T11:57:23.334Z,60
2016-03-13T11:58:23.368Z,60
2016-03-13T11:59:23.684Z,60
2016-03-13T12:00:23.358Z,60
2016-03-13T12:01:23.362Z,60
2016-03-13T12:02:23.349Z,60
2016-03-13T12:03:23.382Z,60
2016-03-13T12:04:23.370Z,60
2016-03-13T12:05:23.373Z,65
2016-03-13T12:06:23.375Z,65
2016-03-13T12:07:23.378Z,65
2016-03-13T12:08:23.380Z,60
2016-03-13T12:09:23.414Z,60
2016-03-13T12:10:23.400Z,60
2016-03-13T12:11:23.403Z,60
2016-03-13T12:12:23.406Z,60
2016-03-13T12:13:23.394Z,55
2016-03-13T12:14:23.412Z,55
2016-03-13T12:15:23.430Z,60
2016-03-13T12:16:23.417Z,55
2016-03-13T12:17:23.435Z,55
2016-03-13T12:18:23.438Z,55
2016-03-13T12:19:23.441Z,55
2016-03-13T12:20:23.444Z,50
2016-03-13T12:21:23.430Z,45
2016-03-13T12:22:23.449Z,55
2016-03-13T12:23:23.452Z,55
2016-03-13T12:24:23.471Z,60
2016-03-13T12:25:23.488Z,50
2016-03-13T12:26:23.460Z,50
2016-03-13T12:27:23.462Z,60
2016-03-13T12:28:23.481Z,60
2016-03-13T12:29:23.499Z,55
2016-03-13T12:30:23.470Z,55
2016-03-13T12:31:23.958Z,55
2016-03-13T12:32:23.492Z,55
2016-03-13T12:33:23.510Z,55
2016-03-13T12:34:23.513Z,55
2016-03-13T12:35:23.500Z,55
2016-03-13T12:36:23.518Z,55
2016-03-13T12:37:23.520Z,50
2016-03-13T12:38:23.508Z,50
2016-03-13T12:39:23.542Z,55
2016-03-13T12:40:23.528Z,45
2016-03-13T12:41:23.547Z,45
2016-03-13T12:42:23.534Z,55
2016-03-13T12:43:23.553Z,50
2016-03-13T12:44:23.633Z,50
2016-03-13T12:45:23.558Z,50
2016-03-13T12:46:23.577Z,50
2016-03-13T12:47:23.563Z,50
2016-03-13T12:48:23.566Z,45
2016-03-13T12:49:23.568Z,55
2016-03-13T12:50:23.556Z,50
2016-03-13T12:51:23.590Z,50
2016-03-13T12:52:23.576Z,50
2016-03-13T12:53:23.611Z,45
2016-03-13T12:54:23.598Z,45
2016-03-13T12:55:23.616Z,50
2016-03-13T12:56:23.588Z,45
2016-03-13T12:57:23.606Z,50
2016-03-13T12:58:23.593Z,45
2016-03-13T12:59:23.657Z,50
2016-03-13T13:00:23.754Z,45
2016-03-13T13:01:23.632Z,45
2016-03-13T13:02:23.635Z,50
2016-03-13T13:03:23.623Z,50
2016-03-13T13:04:23.640Z,50
2016-03-13T13:05:23.643Z,50
2016-03-13T13:06:23.692Z,50
2016-03-13T13:07:23.648Z,55
2016-03-13T13:08:23.651Z,55
2016-03-13T13:09:23.657Z,55
2016-03-13T13:10:23.660Z,55
2016-03-13T13:11:23.679Z,60
2016-03-13T13:12:23.682Z,75
2016-03-13T13:13:23.668Z,200
2016-03-13T13:14:23.765Z,290
2016-03-13T13:15:23.705Z,315
2016-03-13T13:16:23.692Z,175
2016-03-13T13:17:23.554Z,250
2016-03-13T13:18:23.712Z,220
2016-03-13T13:19:23.701Z,215
2016-03-13T13:20:23.718Z,150
2016-03-13T13:21:23.720Z,190
2016-03-13T13:22:23.723Z,390
2016-03-13T13:23:24.054Z,365
2016-03-13T13:24:23.761Z,185
2016-03-13T13:25:23.795Z,85
2016-03-13T13:26:23.750Z,70
2016-03-13T13:27:23.769Z,70
2016-03-13T13:28:23.771Z,145
2016-03-13T13:29:23.789Z,70
2016-03-13T13:30:23.777Z,175
2016-03-13T13:31:23.764Z,50
2016-03-13T13:32:23.783Z,40
2016-03-13T13:33:23.785Z,40
2016-03-13T13:34:23.788Z,45
2016-03-13T13:35:23.790Z,80
2016-03-13T13:36:23.793Z,70
2016-03-13T13:37:23.811Z,80
2016-03-13T13:38:23.813Z,130
2016-03-13T13:39:23.801Z,255
2016-03-13T13:40:23.818Z,175
2016-03-13T13:41:23.822Z,65
2016-03-13T13:42:23.825Z,50
2016-03-13T13:43:23.843Z,45
2016-03-13T13:44:23.846Z,45
2016-03-13T13:45:23.677Z,40
2016-03-13T13:46:23.836Z,50
2016-03-13T13:47:23.869Z,45
2016-03-13T13:48:23.872Z,45
2016-03-13T13:49:23.874Z,35
2016-03-13T13:50:23.862Z,40
2016-03-13T13:51:23.865Z,35
2016-03-13T13:52:23.867Z,40
2016-03-13T13:53:23.869Z,40
2016-03-13T13:54:23.873Z,40
2016-03-13T13:55:23.890Z,40
2016-03-13T13:56:23.893Z,45
2016-03-13T13:57:23.912Z,45
2016-03-13T13:58:23.914Z,45
2016-03-13T13:59:23.917Z,45
2016-03-13T14:00:23.920Z,45
2016-03-13T14:01:23.923Z,40
2016-03-13T14:02:23.909Z,40
2016-03-13T14:03:23.911Z,40
2016-03-13T14:04:23.931Z,40
2016-03-13T14:05:23.949Z,40
2016-03-13T14:06:23.936Z,40
2016-03-13T14:07:23.938Z,40
2016-03-13T14:08:23.942Z,40
2016-03-13T14:09:23.960Z,40
2016-03-13T14:10:23.947Z,40
2016-03-13T14:11:23.965Z,40
2016-03-13T14:12:23.983Z,40
2016-03-13T14:13:23.986Z,40
2016-03-13T14:14:23.973Z,40
2016-03-13T14:15:25.976Z,40
2016-03-13T14:16:23.979Z,40
2016-03-13T14:17:23.996Z,40
2016-03-13T14:18:23.984Z,40
2016-03-13T14:19:23.987Z,40
2016-03-13T14:20:24.004Z,40
2016-03-13T14:21:24.007Z,40
2016-03-13T14:22:24.042Z,40
2016-03-13T14:23:24.013Z,35
2016-03-13T14:24:24.031Z,40